createdAt,value
2023-01-17T00:02:10.484Z,3.15
2023-01-17T00:04:55.849Z,3.15
2023-01-17T00:07:42.859Z,3.16
2023-01-17T00:10:12.576Z,3.15
2023-01-17T00:12:39.345Z,3.15
2023-01-17T00:15:07.172Z,3.15
2023-01-17T00:17:33.826Z,3.11
2023-01-17T00:20:20.236Z,3.11
2023-01-17T00:23:05.826Z,3.10
2023-01-17T00:25:57.436Z,3.09
2023-01-17T00:28:24.908Z,3.09
2023-01-17T00:30:51.984Z,3.08
2023-01-17T00:33:19.591Z,3.09
2023-01-17T00:35:46.510Z,3.10
2023-01-17T00:38:16.002Z,3.10
2023-01-17T00:40:44.165Z,3.09
2023-01-17T00:43:31.939Z,3.07
2023-01-17T00:46:17.400Z,3.02
2023-01-17T00:49:02.753Z,3.00
2023-01-17T00:51:49.146Z,2.99
2023-01-17T00:54:34.485Z,3.01
2023-01-17T00:57:20.061Z,3.02
2023-01-17T01:00:05.872Z,3.03
2023-01-17T01:02:52.109Z,3.05
2023-01-17T01:05:38.555Z,3.01
2023-01-17T01:08:44.991Z,3.05
2023-01-17T01:11:33.861Z,3.06
2023-01-17T01:14:20.219Z,3.07
2023-01-17T01:17:05.482Z,3.06
2023-01-17T01:19:50.733Z,3.07
2023-01-17T01:22:36.021Z,3.08
2023-01-17T01:25:21.266Z,3.05
2023-01-17T01:28:06.530Z,3.08
2023-01-17T01:30:51.856Z,3.07
2023-01-17T01:33:18.663Z,3.03
2023-01-17T01:35:53.982Z,3.09
2023-01-17T01:38:26.019Z,3.09
2023-01-17T01:40:55.269Z,3.09
2023-01-17T01:43:41.955Z,3.09
2023-01-17T01:46:11.293Z,3.09
2023-01-17T01:48:47.778Z,3.11
2023-01-17T01:51:19.799Z,3.11
2023-01-17T01:53:51.094Z,3.12
2023-01-17T01:56:19.904Z,3.13
2023-01-17T01:58:50.316Z,3.14
2023-01-17T02:01:17.872Z,3.14
2023-01-17T02:03:46.305Z,3.16
2023-01-17T02:06:26.881Z,3.16
2023-01-17T02:08:53.725Z,3.16
2023-01-17T02:11:21.518Z,3.16
2023-01-17T02:13:48.156Z,3.17
2023-01-17T02:16:29.992Z,3.19
2023-01-17T02:19:32.109Z,3.21
2023-01-17T02:22:10.947Z,3.22
2023-01-17T02:24:57.696Z,3.23
2023-01-17T02:27:31.187Z,3.24
2023-01-17T02:30:16.605Z,3.25
2023-01-17T02:32:56.471Z,3.25
2023-01-17T02:35:34.087Z,3.24
2023-01-17T02:38:31.158Z,3.26
2023-01-17T02:41:03.555Z,3.26
2023-01-17T02:43:32.647Z,3.27
2023-01-17T02:45:59.480Z,3.27
2023-01-17T02:48:29.412Z,3.25
2023-01-17T02:51:17.750Z,3.26
2023-01-17T02:53:51.303Z,3.26
2023-01-17T02:56:32.598Z,3.27
2023-01-17T02:59:05.359Z,3.29
2023-01-17T03:01:43.367Z,3.27
2023-01-17T03:04:18.474Z,3.23
2023-01-17T03:06:52.452Z,3.27
2023-01-17T03:09:20.341Z,3.28
2023-01-17T03:11:47.266Z,3.29
2023-01-17T03:14:13.974Z,3.27
2023-01-17T03:16:40.787Z,3.27
2023-01-17T03:19:09.718Z,3.24
2023-01-17T03:21:36.411Z,3.24
2023-01-17T03:24:03.134Z,3.24
2023-01-17T03:26:30.125Z,3.21
2023-01-17T03:28:56.754Z,3.18
2023-01-17T03:31:23.595Z,3.11
2023-01-17T03:33:50.239Z,3.09
2023-01-17T03:36:16.890Z,3.04
2023-01-17T03:38:43.817Z,2.97
2023-01-17T03:41:10.462Z,2.96
2023-01-17T03:43:37.114Z,2.92
2023-01-17T03:46:17.384Z,2.91
2023-01-17T03:48:44.012Z,2.86
2023-01-17T03:51:10.678Z,2.87
2023-01-17T03:53:37.306Z,2.81
2023-01-17T03:56:04.144Z,2.78
2023-01-17T03:58:30.767Z,2.72
2023-01-17T04:00:57.493Z,2.72
2023-01-17T04:03:24.201Z,2.73
2023-01-17T04:05:50.830Z,2.67
2023-01-17T04:08:17.610Z,2.62
2023-01-17T04:10:44.223Z,2.67
2023-01-17T04:13:10.867Z,2.66
2023-01-17T04:15:37.486Z,2.68
2023-01-17T04:18:05.057Z,2.62
2023-01-17T04:20:37.455Z,2.65
2023-01-17T04:23:04.816Z,2.65
2023-01-17T04:25:31.478Z,2.66
2023-01-17T04:27:59.703Z,2.68
2023-01-17T04:30:28.118Z,2.67
2023-01-17T04:32:55.801Z,2.68
2023-01-17T04:35:22.469Z,2.69
2023-01-17T04:37:49.273Z,2.69
2023-01-17T04:40:16.211Z,2.69
2023-01-17T04:42:45.644Z,2.72
2023-01-17T04:45:12.752Z,2.71
2023-01-17T04:47:39.429Z,2.72
2023-01-17T04:50:06.840Z,2.73
2023-01-17T04:52:33.463Z,2.78
2023-01-17T04:55:00.091Z,2.75
2023-01-17T04:57:27.211Z,2.76
2023-01-17T04:59:53.830Z,2.76
2023-01-17T05:02:20.711Z,2.75
2023-01-17T05:04:47.540Z,2.66
2023-01-17T05:07:14.188Z,2.73
2023-01-17T05:09:40.814Z,2.76
2023-01-17T05:12:07.498Z,2.76
2023-01-17T05:14:34.428Z,2.77
2023-01-17T05:17:03.008Z,2.74
2023-01-17T05:19:29.892Z,2.77
2023-01-17T05:22:03.567Z,2.75
2023-01-17T05:24:31.099Z,2.73
2023-01-17T05:27:03.755Z,2.72
2023-01-17T05:29:30.710Z,2.71
2023-01-17T05:31:57.750Z,2.65
2023-01-17T05:34:25.143Z,2.65
2023-01-17T05:36:51.866Z,2.59
2023-01-17T05:39:18.496Z,2.62
2023-01-17T05:41:45.714Z,2.56
2023-01-17T05:44:12.500Z,2.57
2023-01-17T05:46:39.194Z,2.55
2023-01-17T05:49:07.127Z,2.54
2023-01-17T05:51:37.564Z,2.50
2023-01-17T05:54:05.379Z,2.44
2023-01-17T05:56:32.348Z,2.41
2023-01-17T05:58:59.006Z,2.42
2023-01-17T06:01:25.851Z,2.40
2023-01-17T06:03:52.536Z,2.42
2023-01-17T06:06:19.221Z,2.42
2023-01-17T06:08:45.825Z,2.38
2023-01-17T06:11:12.454Z,2.34
2023-01-17T06:13:39.080Z,2.29
2023-01-17T06:16:06.106Z,2.26
2023-01-17T06:18:32.977Z,2.23
2023-01-17T06:20:59.614Z,2.21
2023-01-17T06:23:26.247Z,2.20
2023-01-17T06:25:52.905Z,2.19
2023-01-17T06:28:21.885Z,2.16
2023-01-17T06:30:48.982Z,2.15
2023-01-17T06:33:15.864Z,2.15
2023-01-17T06:35:52.477Z,2.07
2023-01-17T06:38:19.625Z,2.05
2023-01-17T06:40:48.075Z,2.04
2023-01-17T06:43:16.644Z,2.03
2023-01-17T06:45:43.284Z,2.02
2023-01-17T06:48:09.924Z,2.04
2023-01-17T06:50:36.779Z,2.03
2023-01-17T06:53:05.700Z,2.03
2023-01-17T06:55:33.964Z,2.02
2023-01-17T06:58:02.393Z,2.00
2023-01-17T07:00:30.614Z,1.97
2023-01-17T07:02:57.342Z,1.96
2023-01-17T07:05:23.831Z,1.99
2023-01-17T07:07:50.317Z,1.98
2023-01-17T07:10:16.945Z,1.98
2023-01-17T07:12:43.387Z,1.99
2023-01-17T07:15:10.621Z,2.00
2023-01-17T07:17:37.325Z,2.01
2023-01-17T07:20:04.176Z,2.01
2023-01-17T07:22:30.745Z,2.01
2023-01-17T07:24:58.595Z,2.01
2023-01-17T07:27:27.618Z,2.01
2023-01-17T07:29:54.375Z,1.99
2023-01-17T07:32:20.982Z,2.01
2023-01-17T07:34:47.459Z,1.98
2023-01-17T07:37:15.290Z,1.94
2023-01-17T07:39:42.055Z,1.93
2023-01-17T07:42:09.095Z,1.94
2023-01-17T07:44:41.954Z,1.96
2023-01-17T07:47:08.390Z,1.96
2023-01-17T07:49:35.944Z,1.93
2023-01-17T07:52:02.640Z,1.93
2023-01-17T07:54:29.075Z,1.86
2023-01-17T07:56:55.903Z,1.80
2023-01-17T07:59:22.938Z,1.77
2023-01-17T08:01:49.453Z,1.74
2023-01-17T08:04:16.027Z,1.70
2023-01-17T08:06:47.338Z,1.68
2023-01-17T08:09:14.025Z,1.65
2023-01-17T08:11:40.469Z,1.64
2023-01-17T08:14:06.933Z,1.64
2023-01-17T08:16:33.429Z,1.64
2023-01-17T08:18:59.887Z,1.63
2023-01-17T08:21:27.890Z,1.66
2023-01-17T08:23:54.351Z,1.63
2023-01-17T08:26:22.148Z,1.69
2023-01-17T08:28:57.762Z,1.71
2023-01-17T08:31:24.535Z,1.69
2023-01-17T08:33:51.094Z,1.66
2023-01-17T08:36:18.040Z,1.66
2023-01-17T08:38:45.319Z,1.67
2023-01-17T08:41:12.881Z,1.69
2023-01-17T08:43:39.365Z,1.70
2023-01-17T08:46:06.264Z,1.73
2023-01-17T08:48:32.826Z,1.76
2023-01-17T08:51:03.090Z,1.76
2023-01-17T08:53:29.867Z,1.77
2023-01-17T08:56:01.885Z,1.73
2023-01-17T08:58:30.798Z,1.75
2023-01-17T09:01:05.789Z,1.77
2023-01-17T09:03:35.066Z,1.80
2023-01-17T09:06:03.246Z,1.79
2023-01-17T09:08:30.594Z,1.83
2023-01-17T09:10:57.522Z,1.85
2023-01-17T09:13:24.385Z,1.87
2023-01-17T09:15:55.844Z,1.88
2023-01-17T09:18:22.472Z,1.90
2023-01-17T09:20:49.091Z,1.89
2023-01-17T09:23:15.749Z,1.93
2023-01-17T09:25:44.689Z,1.95
2023-01-17T09:28:11.356Z,1.97
2023-01-17T09:30:38.017Z,1.95
2023-01-17T09:33:04.631Z,1.94
2023-01-17T09:35:31.262Z,1.95
2023-01-17T09:37:58.273Z,1.96
2023-01-17T09:40:25.500Z,1.96
2023-01-17T09:42:59.795Z,1.99
2023-01-17T09:45:31.950Z,1.98
2023-01-17T09:48:01.137Z,1.97
2023-01-17T09:50:32.908Z,1.99
2023-01-17T09:53:02.375Z,1.98
2023-01-17T09:55:37.127Z,1.95
2023-01-17T09:58:19.370Z,1.91
2023-01-17T10:01:17.359Z,1.90
2023-01-17T10:04:21.403Z,1.86
2023-01-17T10:07:12.576Z,1.83
2023-01-17T10:10:10.932Z,1.82
2023-01-17T10:13:03.853Z,1.80
2023-01-17T10:16:04.261Z,1.81
2023-01-17T10:18:56.122Z,1.85
2023-01-17T10:21:50.763Z,1.86
2023-01-17T10:25:03.884Z,1.88
2023-01-17T10:27:35.032Z,1.88
2023-01-17T10:30:12.379Z,1.91
2023-01-17T10:32:46.323Z,1.92
2023-01-17T10:35:27.180Z,1.92
2023-01-17T10:37:57.004Z,1.89
2023-01-17T10:40:51.080Z,1.91
2023-01-17T10:43:30.637Z,1.91
2023-01-17T10:45:57.464Z,1.90
2023-01-17T10:48:35.406Z,1.86
2023-01-17T10:51:25.916Z,1.91
2023-01-17T10:54:23.024Z,1.91
2023-01-17T10:56:49.781Z,1.91
2023-01-17T10:59:34.829Z,1.95
2023-01-17T11:02:07.293Z,1.95
2023-01-17T11:04:37.373Z,1.99
2023-01-17T11:07:14.708Z,1.99
2023-01-17T11:09:45.008Z,2.02
2023-01-17T11:12:22.710Z,2.06
2023-01-17T11:15:02.476Z,2.10
2023-01-17T11:17:30.734Z,2.11
2023-01-17T11:20:26.362Z,2.19
2023-01-17T11:23:17.674Z,2.21
2023-01-17T11:25:58.096Z,2.21
2023-01-17T11:28:30.202Z,2.19
2023-01-17T11:30:58.370Z,2.23
2023-01-17T11:33:44.898Z,2.26
2023-01-17T11:36:29.063Z,2.26
2023-01-17T11:39:14.181Z,2.29
2023-01-17T11:41:41.380Z,2.35
2023-01-17T11:44:23.134Z,2.38
2023-01-17T11:47:08.794Z,2.39
2023-01-17T11:49:35.565Z,2.41
2023-01-17T11:52:09.221Z,2.44
2023-01-17T11:54:42.595Z,2.45
2023-01-17T11:57:33.191Z,2.47
2023-01-17T12:00:19.548Z,2.48
2023-01-17T12:03:10.670Z,2.49
2023-01-17T12:05:41.599Z,2.50
2023-01-17T12:08:39.877Z,2.52
2023-01-17T12:11:28.069Z,2.53
2023-01-17T12:14:25.941Z,2.60
2023-01-17T12:16:55.884Z,2.67
2023-01-17T12:19:41.393Z,2.72
2023-01-17T12:22:41.950Z,2.75
2023-01-17T12:25:26.830Z,2.76
2023-01-17T12:28:25.698Z,2.76
2023-01-17T12:31:18.273Z,2.77
2023-01-17T12:34:08.108Z,2.81
2023-01-17T12:37:10.933Z,2.81
2023-01-17T12:39:43.418Z,2.81
2023-01-17T12:42:20.570Z,2.79
2023-01-17T12:45:00.247Z,2.78
2023-01-17T12:47:26.951Z,2.77
2023-01-17T12:50:09.338Z,2.80
2023-01-17T12:52:52.235Z,2.78
2023-01-17T12:55:32.401Z,2.73
2023-01-17T12:58:02.245Z,2.78
2023-01-17T13:00:32.890Z,2.79
2023-01-17T13:03:20.903Z,2.80
2023-01-17T13:05:48.686Z,2.81
2023-01-17T13:08:20.518Z,2.81
2023-01-17T13:10:59.107Z,2.82
2023-01-17T13:13:28.122Z,2.84
2023-01-17T13:16:15.976Z,2.86
2023-01-17T13:18:47.963Z,2.83
2023-01-17T13:21:30.298Z,2.80
2023-01-17T13:23:58.936Z,2.78
2023-01-17T13:26:56.080Z,2.79
2023-01-17T13:29:52.158Z,2.79
2023-01-17T13:32:28.625Z,2.74
2023-01-17T13:35:10.709Z,2.70
2023-01-17T13:37:54.600Z,2.71
2023-01-17T13:40:34.971Z,2.69
2023-01-17T13:43:11.911Z,2.64
2023-01-17T13:45:38.934Z,2.63
2023-01-17T13:48:11.685Z,2.64
2023-01-17T13:50:38.238Z,2.63
2023-01-17T13:53:43.942Z,2.63
2023-01-17T13:56:34.071Z,2.63
2023-01-17T13:59:03.173Z,2.63
2023-01-17T14:01:34.612Z,2.63
2023-01-17T14:04:04.109Z,2.59
2023-01-17T14:06:46.555Z,2.57
2023-01-17T14:09:25.091Z,2.51
2023-01-17T14:11:51.954Z,2.48
2023-01-17T14:14:43.573Z,2.45
2023-01-17T14:17:15.365Z,2.45
2023-01-17T14:19:45.974Z,2.43
2023-01-17T14:22:18.784Z,2.39
2023-01-17T14:25:02.040Z,2.36
2023-01-17T14:27:34.496Z,2.35
2023-01-17T14:30:02.757Z,2.34
2023-01-17T14:32:32.816Z,2.31
2023-01-17T14:34:59.717Z,2.29
2023-01-17T14:37:44.015Z,2.26
2023-01-17T14:40:26.334Z,2.25
2023-01-17T14:42:58.973Z,2.22
2023-01-17T14:45:31.397Z,2.18
2023-01-17T14:48:02.009Z,2.19
2023-01-17T14:50:49.982Z,2.17
2023-01-17T14:53:20.666Z,2.13
2023-01-17T14:55:47.220Z,2.11
2023-01-17T14:58:29.258Z,2.07
2023-01-17T15:01:02.283Z,2.03
2023-01-17T15:03:31.789Z,1.99
2023-01-17T15:06:11.208Z,1.96
2023-01-17T15:08:39.149Z,1.92
2023-01-17T15:11:09.373Z,1.94
2023-01-17T15:13:45.240Z,1.91
2023-01-17T15:16:29.931Z,1.87
2023-01-17T15:18:57.243Z,1.85
2023-01-17T15:21:27.885Z,1.80
2023-01-17T15:23:57.743Z,1.80
2023-01-17T15:26:27.348Z,1.80
2023-01-17T15:29:03.129Z,1.77
2023-01-17T15:31:42.643Z,1.76
2023-01-17T15:34:19.167Z,1.73
2023-01-17T15:36:48.799Z,1.70
2023-01-17T15:39:24.699Z,1.66
2023-01-17T15:41:53.366Z,1.58
2023-01-17T15:44:49.313Z,1.62
2023-01-17T15:47:34.286Z,1.57
2023-01-17T15:50:28.421Z,1.55
2023-01-17T15:52:58.818Z,1.52
2023-01-17T15:55:31.074Z,1.50
2023-01-17T15:57:57.921Z,1.46
2023-01-17T16:00:32.472Z,1.43
2023-01-17T16:02:59.548Z,1.38
2023-01-17T16:05:25.988Z,1.37
2023-01-17T16:07:56.312Z,1.34
2023-01-17T16:10:28.613Z,1.32
2023-01-17T16:12:59.489Z,1.30
2023-01-17T16:15:27.341Z,1.24
2023-01-17T16:18:02.699Z,1.22
2023-01-17T16:20:35.413Z,1.17
2023-01-17T16:23:02.532Z,1.14
2023-01-17T16:25:32.896Z,1.13
2023-01-17T16:27:59.983Z,1.08
2023-01-17T16:30:27.276Z,1.10
2023-01-17T16:32:55.248Z,1.07
2023-01-17T16:35:24.266Z,1.07
2023-01-17T16:37:55.828Z,1.06
2023-01-17T16:40:28.343Z,1.04
2023-01-17T16:42:59.044Z,1.00
2023-01-17T16:45:25.692Z,1.00
2023-01-17T16:47:53.896Z,0.96
2023-01-17T16:50:23.753Z,0.95
2023-01-17T16:52:51.851Z,0.91
2023-01-17T16:55:21.968Z,0.88
2023-01-17T16:57:50.126Z,0.82
2023-01-17T17:00:17.325Z,0.83
2023-01-17T17:02:44.246Z,0.79
2023-01-17T17:05:11.301Z,0.78
2023-01-17T17:07:42.668Z,0.76
2023-01-17T17:10:10.323Z,0.73
2023-01-17T17:12:36.820Z,0.72
2023-01-17T17:15:03.477Z,0.70
2023-01-17T17:17:29.963Z,0.68
2023-01-17T17:19:56.419Z,0.65
2023-01-17T17:22:22.857Z,0.65
2023-01-17T17:24:49.388Z,0.61
2023-01-17T17:27:15.818Z,0.60
2023-01-17T17:29:42.475Z,0.58
2023-01-17T17:32:11.456Z,0.56
2023-01-17T17:34:38.602Z,0.55
2023-01-17T17:37:05.235Z,0.53
2023-01-17T17:39:32.195Z,0.50
2023-01-17T17:41:58.853Z,0.48
2023-01-17T17:44:25.705Z,0.47
2023-01-17T17:46:52.361Z,0.43
2023-01-17T17:49:20.345Z,0.45
2023-01-17T17:51:47.924Z,0.40
2023-01-17T17:54:15.876Z,0.40
2023-01-17T17:56:47.254Z,0.37
2023-01-17T17:59:18.134Z,0.34
2023-01-17T18:01:46.003Z,0.32
2023-01-17T18:04:12.714Z,0.31
2023-01-17T18:06:39.916Z,0.30
2023-01-17T18:09:08.865Z,0.28
2023-01-17T18:11:37.111Z,0.26
2023-01-17T18:14:05.464Z,0.27
2023-01-17T18:16:41.314Z,0.24
2023-01-17T18:19:13.399Z,0.23
2023-01-17T18:21:40.300Z,0.24
2023-01-17T18:24:10.213Z,0.22
2023-01-17T18:26:36.953Z,0.22
2023-01-17T18:29:05.302Z,0.19
2023-01-17T18:31:32.112Z,0.17
2023-01-17T18:34:02.994Z,0.15
2023-01-17T18:36:29.779Z,0.13
2023-01-17T18:38:56.711Z,0.11
2023-01-17T18:41:28.783Z,0.10
2023-01-17T18:43:58.729Z,0.07
2023-01-17T18:46:25.953Z,0.04
2023-01-17T18:48:55.633Z,-0.01
2023-01-17T18:51:22.515Z,-0.05
2023-01-17T18:53:49.387Z,-0.08
2023-01-17T18:56:18.723Z,-0.08
2023-01-17T18:58:46.914Z,-0.08
2023-01-17T19:01:25.740Z,-0.08
2023-01-17T19:03:59.071Z,-0.07
2023-01-17T19:06:39.712Z,-0.06
2023-01-17T19:09:07.855Z,-0.08
2023-01-17T19:11:35.108Z,-0.09
2023-01-17T19:14:03.037Z,-0.14
2023-01-17T19:16:31.874Z,-0.10
2023-01-17T19:19:03.011Z,-0.12
2023-01-17T19:21:30.177Z,-0.15
2023-01-17T19:23:57.410Z,-0.14
2023-01-17T19:26:24.977Z,-0.18
2023-01-17T19:28:51.898Z,-0.17
2023-01-17T19:31:23.921Z,-0.20
2023-01-17T19:33:53.436Z,-0.22
2023-01-17T19:36:23.325Z,-0.27
2023-01-17T19:39:03.428Z,-0.29
2023-01-17T19:41:31.528Z,-0.30
2023-01-17T19:44:05.732Z,-0.32
2023-01-17T19:46:33.120Z,-0.34
2023-01-17T19:49:00.028Z,-0.34
2023-01-17T19:51:26.827Z,-0.33
2023-01-17T19:53:54.769Z,-0.35
2023-01-17T19:56:24.072Z,-0.35
2023-01-17T19:58:51.935Z,-0.35
2023-01-17T20:01:25.038Z,-0.36
2023-01-17T20:03:51.987Z,-0.39
2023-01-17T20:06:24.156Z,-0.42
2023-01-17T20:08:51.009Z,-0.45
2023-01-17T20:11:20.377Z,-0.50
2023-01-17T20:13:48.433Z,-0.52
2023-01-17T20:16:17.744Z,-0.55
2023-01-17T20:18:45.530Z,-0.56
2023-01-17T20:21:17.022Z,-0.58
2023-01-17T20:23:46.940Z,-0.60
2023-01-17T20:26:15.759Z,-0.64
2023-01-17T20:28:44.928Z,-0.65
2023-01-17T20:31:20.460Z,-0.67
2023-01-17T20:33:50.124Z,-0.68
2023-01-17T20:36:18.506Z,-0.70
2023-01-17T20:38:45.767Z,-0.72
2023-01-17T20:41:13.776Z,-0.73
2023-01-17T20:43:42.012Z,-0.73
2023-01-17T20:46:09.764Z,-0.75
2023-01-17T20:48:37.641Z,-0.76
2023-01-17T20:51:10.609Z,-0.80
2023-01-17T20:53:39.103Z,-0.82
2023-01-17T20:56:07.885Z,-0.83
2023-01-17T20:58:35.030Z,-0.85
2023-01-17T21:01:02.125Z,-0.86
2023-01-17T21:03:29.206Z,-0.87
2023-01-17T21:06:06.201Z,-0.90
2023-01-17T21:08:35.057Z,-0.94
2023-01-17T21:11:01.867Z,-0.96
2023-01-17T21:13:28.982Z,-0.99
2023-01-17T21:15:55.724Z,-1.02
2023-01-17T21:18:24.714Z,-1.02
2023-01-17T21:20:51.906Z,-1.03
2023-01-17T21:23:19.955Z,-1.05
2023-01-17T21:25:49.284Z,-1.07
2023-01-17T21:28:15.989Z,-1.08
2023-01-17T21:30:42.645Z,-1.11
2023-01-17T21:33:09.365Z,-1.10
2023-01-17T21:35:36.047Z,-1.12
2023-01-17T21:38:02.750Z,-1.12
2023-01-17T21:40:29.424Z,-1.13
2023-01-17T21:42:56.070Z,-1.14
2023-01-17T21:45:26.132Z,-1.17
2023-01-17T21:47:52.688Z,-1.18
2023-01-17T21:50:32.745Z,-1.21
2023-01-17T21:52:59.835Z,-1.28
2023-01-17T21:55:45.259Z,-1.24
2023-01-17T21:58:35.644Z,-1.23
2023-01-17T22:01:15.730Z,-1.30
2023-01-17T22:03:43.510Z,-1.27
2023-01-17T22:06:10.422Z,-1.31
2023-01-17T22:08:37.716Z,-1.28
2023-01-17T22:11:10.851Z,-1.27
2023-01-17T22:13:40.676Z,-1.28
2023-01-17T22:16:10.528Z,-1.26
2023-01-17T22:18:38.891Z,-1.27
2023-01-17T22:21:08.145Z,-1.28
2023-01-17T22:23:36.278Z,-1.27
2023-01-17T22:26:05.120Z,-1.28
2023-01-17T22:28:32.766Z,-1.25
2023-01-17T22:31:08.771Z,-1.29
2023-01-17T22:33:36.590Z,-1.27
2023-01-17T22:36:03.778Z,-1.28
2023-01-17T22:38:31.362Z,-1.27
2023-01-17T22:41:09.065Z,-1.29
2023-01-17T22:43:44.988Z,-1.27
2023-01-17T22:46:18.052Z,-1.28
2023-01-17T22:48:45.383Z,-1.30
2023-01-17T22:51:14.993Z,-1.30
2023-01-17T22:53:45.762Z,-1.31
2023-01-17T22:56:16.270Z,-1.32
2023-01-17T22:58:44.811Z,-1.35
2023-01-17T23:01:14.192Z,-1.36
2023-01-17T23:03:41.802Z,-1.40
2023-01-17T23:06:13.645Z,-1.41
2023-01-17T23:08:42.715Z,-1.45
2023-01-17T23:11:46.078Z,-1.49
2023-01-17T23:14:17.105Z,-1.55
2023-01-17T23:17:22.846Z,-1.53
2023-01-17T23:19:52.347Z,-1.56
2023-01-17T23:22:20.294Z,-1.59
2023-01-17T23:24:58.776Z,-1.59
2023-01-17T23:27:53.426Z,-1.62
2023-01-17T23:30:29.284Z,-1.63
2023-01-17T23:32:59.924Z,-1.63
2023-01-17T23:35:35.537Z,-1.67
2023-01-17T23:38:21.771Z,-1.74
2023-01-17T23:41:08.815Z,-1.75
2023-01-17T23:43:36.362Z,-1.75
2023-01-17T23:46:05.024Z,-1.75
2023-01-17T23:48:31.726Z,-1.77
2023-01-17T23:51:00.821Z,-1.74
2023-01-17T23:53:27.769Z,-1.74
2023-01-17T23:55:56.408Z,-1.75
2023-01-17T23:58:26.584Z,-1.76
